Whiting Field Naval Air Station North Airport
KNSE : now visible

Airfield :











YOU CAN JOIN US ON...

 
LOGIN :

Register | Disclaimer

   EN    FR    IT 

 









Legend :    VFR   Marginal VFR   IFR   Intensive IFR   Very Intensive IFR
Visi :
Ceiling :
>= 8 km
>= 3000ft
5 to 8 km
1000 to 3000 ft
1500m to 5 km
500 to 1000 ft
800 to 1500m
200 to 500 ft
< 800m
< 200 ft
Symbols :   Thunderstorms  Fog  Heavy snow  Heavy precipitations  Wind > 20 kt






- Airport Elevation : 199 ft


KNSE - Whiting Field Naval Air Station North

CURRENT METAR :
  • 182056Z 14017G23KT 10SM FEW035 SCT070 BKN200 27/16 A3007 RMK AO2 SLP170 T02670161 58014

EXPIRED METARs :
  • 181956Z 15015G24KT 10SM SCT035 SCT070 BKN200 27/17 A3009 RMK AO2 SLP175 T02670167
  • 181856Z 14018G25KT 10SM SCT035 SCT070 BKN250 26/17 A3011 RMK AO2 SLP181 T02610167

TAF TAF KNSE
Valid from the 18 at 15:00 until the 19 at 15:00 UTC


1815/1915 14016G26KT 9999 SCT030 SCT060 BKN150 BKN250 QNH3010INS
TEMPO 1815/1818 BKN030 BKN060
FM182100 14012G20KT SCT050 BKN150 BKN250 QNH3005INS
FM190100 12007KT 9999 FEW050 SCT120 BKN180 BKN250 QNH3004INS
FM190800 10010KT 9999 SCT050 BKN150 QNH3005INS
FM191300 11012G18KT 9999 FEW020 SCT120 BKN250 QNH3011INS T28/1819Z T17/1912Z FN20071
KZJX FIR / North America



MET'MAP, your aeronautical weather chart ! - Copyright ORBIFLY December 2007 - Disclaimer

ORBIFLY MET'MAP TEAM :

Programming & Development : Alexandra Zaïnal
Concept & original design : Baudouin d'Aumeries
Assistance for programming : Marc-Olivier Méhu
Technical & hardware support : Manuel Goepfert

Contact : metmap@orbifly.com




SOURCES & CREDITS :

   NOAA       Earth
Advisory